createdAt,value
2023-07-22T00:02:14.124Z,2.60
2023-07-22T00:04:42.234Z,1.70
2023-07-22T00:07:10.475Z,1.80
2023-07-22T00:09:40.130Z,1.90
2023-07-22T00:12:09.366Z,1.70
2023-07-22T00:14:41.346Z,1.90
2023-07-22T00:17:10.187Z,1.90
2023-07-22T00:19:38.530Z,2.20
2023-07-22T00:22:06.832Z,1.80
2023-07-22T00:24:35.268Z,1.60
2023-07-22T00:27:03.570Z,1.90
2023-07-22T00:29:31.697Z,1.90
2023-07-22T00:31:59.906Z,2.20
2023-07-22T00:34:27.860Z,1.60
2023-07-22T00:36:56.179Z,2.00
2023-07-22T00:39:24.313Z,1.80
2023-07-22T00:41:52.673Z,1.70
2023-07-22T00:44:20.893Z,1.70
2023-07-22T00:46:50.451Z,1.90
2023-07-22T00:49:18.972Z,2.30
2023-07-22T00:51:47.373Z,1.50
2023-07-22T00:54:15.422Z,2.10
2023-07-22T00:56:45.186Z,2.20
2023-07-22T00:59:14.977Z,2.00
2023-07-22T01:01:43.194Z,2.00
2023-07-22T01:04:11.782Z,2.30
2023-07-22T01:06:40.311Z,2.20
2023-07-22T01:09:08.853Z,1.70
2023-07-22T01:11:37.432Z,2.80
2023-07-22T01:14:05.626Z,2.00
2023-07-22T01:16:33.831Z,1.80
2023-07-22T01:19:01.982Z,2.10
2023-07-22T01:21:30.698Z,2.00
2023-07-22T01:23:59.038Z,1.80
2023-07-22T01:26:28.287Z,2.20
2023-07-22T01:29:04.760Z,1.70
2023-07-22T01:31:36.968Z,2.00
2023-07-22T01:34:05.431Z,2.00
2023-07-22T01:36:33.814Z,2.20
2023-07-22T01:39:01.947Z,2.10
2023-07-22T01:41:30.441Z,1.70
2023-07-22T01:43:58.737Z,2.30
2023-07-22T01:46:27.406Z,1.70
2023-07-22T01:48:57.257Z,2.20
2023-07-22T01:51:26.596Z,1.80
2023-07-22T01:53:58.044Z,1.60
2023-07-22T01:56:26.666Z,1.90
2023-07-22T01:58:55.045Z,2.20
2023-07-22T02:01:23.491Z,3.00
2023-07-22T02:03:51.678Z,2.50
2023-07-22T02:06:20.606Z,3.30
2023-07-22T02:08:48.806Z,2.60
2023-07-22T02:11:18.669Z,2.60
2023-07-22T02:13:46.747Z,2.90
2023-07-22T02:16:14.918Z,2.90
2023-07-22T02:18:43.144Z,2.30
2023-07-22T02:21:11.134Z,2.40
2023-07-22T02:23:39.253Z,2.60
2023-07-22T02:26:07.582Z,2.70
2023-07-22T02:28:36.096Z,3.10
2023-07-22T02:31:08.941Z,3.00
2023-07-22T02:33:37.261Z,2.20
2023-07-22T02:36:05.564Z,2.60
2023-07-22T02:38:33.696Z,2.50
2023-07-22T02:41:07.577Z,2.30
2023-07-22T02:43:36.551Z,2.10
2023-07-22T02:46:08.122Z,2.00
2023-07-22T02:48:36.301Z,2.70
2023-07-22T02:51:09.663Z,1.80
2023-07-22T02:53:38.326Z,2.10
2023-07-22T02:56:09.975Z,1.90
2023-07-22T02:58:38.057Z,2.20
2023-07-22T03:01:10.062Z,1.90
2023-07-22T03:03:38.694Z,2.20
2023-07-22T03:06:06.842Z,2.10
2023-07-22T03:08:34.906Z,2.60
2023-07-22T03:11:04.921Z,2.10
2023-07-22T03:13:34.449Z,2.00
2023-07-22T03:16:05.598Z,2.20
2023-07-22T03:18:34.009Z,1.80
2023-07-22T03:21:02.352Z,2.00
2023-07-22T03:23:30.314Z,2.20
2023-07-22T03:25:58.377Z,2.00
2023-07-22T03:28:27.195Z,2.60
2023-07-22T03:30:55.588Z,2.40
2023-07-22T03:33:23.938Z,2.70
2023-07-22T03:35:51.986Z,2.40
2023-07-22T03:38:20.382Z,2.70
2023-07-22T03:40:48.728Z,2.60
2023-07-22T03:43:16.832Z,2.10
2023-07-22T03:45:45.201Z,1.90
2023-07-22T03:48:13.832Z,2.00
2023-07-22T03:50:42.067Z,2.10
2023-07-22T03:53:10.313Z,2.70
2023-07-22T03:55:38.535Z,3.50
2023-07-22T03:58:06.557Z,1.80
2023-07-22T04:00:34.864Z,2.40
2023-07-22T04:03:03.153Z,1.90
2023-07-22T04:05:31.335Z,2.10
2023-07-22T04:07:59.381Z,2.60
2023-07-22T04:10:27.548Z,1.80
2023-07-22T04:12:55.633Z,2.20
2023-07-22T04:15:24.041Z,2.30
2023-07-22T04:17:52.208Z,2.50
2023-07-22T04:20:20.351Z,4.00
2023-07-22T04:22:48.414Z,2.50
2023-07-22T04:25:16.710Z,2.60
2023-07-22T04:27:44.864Z,2.90
2023-07-22T04:30:13.381Z,2.80
2023-07-22T04:32:44.740Z,2.50
2023-07-22T04:35:13.459Z,2.90
2023-07-22T04:37:41.460Z,2.50
2023-07-22T04:40:14.995Z,2.30
2023-07-22T04:42:43.153Z,2.70
2023-07-22T04:45:12.370Z,2.80
2023-07-22T04:47:40.759Z,2.40
2023-07-22T04:50:12.574Z,2.10
2023-07-22T04:52:44.524Z,2.40
2023-07-22T04:57:42.433Z,2.20
2023-07-22T05:00:11.110Z,3.10
2023-07-22T05:02:39.902Z,3.20
2023-07-22T05:05:08.580Z,2.90
2023-07-22T05:07:36.965Z,2.80
2023-07-22T05:10:05.622Z,2.70
2023-07-22T05:12:33.726Z,2.80
2023-07-22T05:15:01.902Z,3.10
2023-07-22T05:17:32.365Z,3.20
2023-07-22T05:20:00.418Z,2.70
2023-07-22T05:22:28.552Z,2.90
2023-07-22T05:24:57.637Z,2.60
2023-07-22T05:27:26.419Z,2.60
2023-07-22T05:29:54.550Z,2.80
2023-07-22T05:32:32.497Z,2.90
2023-07-22T05:35:03.534Z,2.80
2023-07-22T05:37:32.326Z,3.20
2023-07-22T05:40:01.243Z,3.20
2023-07-22T05:42:30.143Z,2.20
2023-07-22T05:44:59.917Z,2.50
2023-07-22T05:47:28.016Z,2.40
2023-07-22T05:49:56.103Z,2.40
2023-07-22T05:52:24.676Z,2.60
2023-07-22T05:54:52.747Z,2.50
2023-07-22T05:57:20.813Z,2.70
2023-07-22T05:59:58.290Z,3.00
2023-07-22T06:02:40.297Z,2.50
2023-07-22T06:05:09.054Z,2.60
2023-07-22T06:07:38.127Z,3.00
2023-07-22T06:10:07.539Z,3.30
2023-07-22T06:12:36.857Z,2.50
2023-07-22T06:15:05.565Z,2.90
2023-07-22T06:17:33.745Z,2.60
2023-07-22T06:20:02.507Z,2.30
2023-07-22T06:22:30.493Z,2.50
2023-07-22T06:24:58.668Z,2.30
2023-07-22T06:27:26.906Z,2.10
2023-07-22T06:29:54.910Z,2.70
2023-07-22T06:32:23.326Z,2.50
2023-07-22T06:34:52.907Z,2.30
2023-07-22T06:37:20.835Z,2.00
2023-07-22T06:39:48.892Z,2.10
2023-07-22T06:42:17.180Z,1.90
2023-07-22T06:44:45.334Z,2.30
2023-07-22T06:47:13.766Z,2.20
2023-07-22T06:49:43.577Z,2.20
2023-07-22T06:52:14.198Z,2.30
2023-07-22T06:54:42.378Z,1.80
2023-07-22T06:57:10.672Z,2.10
2023-07-22T06:59:38.826Z,2.40
2023-07-22T07:02:07.012Z,1.90
2023-07-22T07:04:35.423Z,1.80
2023-07-22T07:07:04.130Z,2.30
2023-07-22T07:09:32.114Z,1.90
2023-07-22T07:12:00.269Z,2.10
2023-07-22T07:14:28.564Z,2.10
2023-07-22T07:16:56.891Z,2.20
2023-07-22T07:19:25.021Z,2.10
2023-07-22T07:21:52.995Z,2.00
2023-07-22T07:24:21.476Z,2.10
2023-07-22T07:26:49.536Z,2.20
2023-07-22T07:29:32.950Z,2.50
2023-07-22T07:32:06.331Z,2.30
2023-07-22T07:34:34.478Z,1.90
2023-07-22T07:37:02.500Z,2.00
2023-07-22T07:39:30.438Z,1.80
2023-07-22T07:41:58.411Z,2.10
2023-07-22T07:44:26.557Z,2.00
2023-07-22T07:46:54.606Z,1.80
2023-07-22T07:49:22.511Z,2.00
2023-07-22T07:51:50.466Z,1.60
2023-07-22T07:54:18.680Z,1.60
2023-07-22T07:56:46.821Z,1.80
2023-07-22T07:59:14.827Z,1.60
2023-07-22T08:01:43.079Z,1.60
2023-07-22T08:04:11.972Z,1.60
2023-07-22T08:06:40.428Z,1.90
2023-07-22T08:09:08.445Z,1.90
2023-07-22T08:11:36.275Z,1.60
2023-07-22T08:14:04.290Z,1.90
2023-07-22T08:16:32.434Z,2.10
2023-07-22T08:19:00.457Z,1.60
2023-07-22T08:21:28.561Z,1.90
2023-07-22T08:23:56.592Z,1.80
2023-07-22T08:26:24.885Z,1.80
2023-07-22T08:28:53.087Z,1.90
2023-07-22T08:31:21.190Z,2.00
2023-07-22T08:33:49.600Z,2.10
2023-07-22T08:36:17.542Z,1.80
2023-07-22T08:38:45.767Z,1.90
2023-07-22T08:41:19.884Z,1.80
2023-07-22T08:43:48.813Z,1.70
2023-07-22T08:46:17.043Z,1.90
2023-07-22T08:48:49.573Z,2.20
2023-07-22T08:51:19.065Z,1.80
2023-07-22T08:54:04.651Z,2.30
2023-07-22T08:56:37.448Z,1.70
2023-07-22T08:59:07.358Z,1.80
2023-07-22T09:01:37.707Z,2.10
2023-07-22T09:04:06.287Z,1.80
2023-07-22T09:06:36.127Z,2.00
2023-07-22T09:09:09.284Z,1.60
2023-07-22T09:11:37.904Z,1.50
2023-07-22T09:14:06.345Z,1.70
2023-07-22T09:16:35.834Z,1.80
2023-07-22T09:19:06.490Z,1.60
2023-07-22T09:21:37.365Z,1.80
2023-07-22T09:24:26.528Z,2.10
2023-07-22T09:26:55.461Z,1.80
2023-07-22T09:29:37.549Z,1.90
2023-07-22T09:32:06.489Z,1.90
2023-07-22T09:34:34.440Z,1.70
2023-07-22T09:37:04.855Z,1.60
2023-07-22T09:39:33.331Z,1.50
2023-07-22T09:42:03.217Z,1.80
2023-07-22T09:44:35.363Z,1.70
2023-07-22T09:47:08.544Z,1.50
2023-07-22T09:49:42.917Z,1.70
2023-07-22T09:52:14.845Z,1.90
2023-07-22T09:54:50.482Z,1.60
2023-07-22T09:57:19.653Z,1.90
2023-07-22T09:59:51.348Z,1.60
2023-07-22T10:02:21.600Z,1.50
2023-07-22T10:04:52.854Z,1.90
2023-07-22T10:07:22.223Z,1.70
2023-07-22T10:09:52.537Z,1.70
2023-07-22T10:12:20.954Z,1.50
2023-07-22T10:14:50.660Z,1.80
2023-07-22T10:17:18.975Z,1.70
2023-07-22T10:19:47.238Z,1.80
2023-07-22T10:22:15.705Z,1.90
2023-07-22T10:24:46.605Z,1.80
2023-07-22T10:29:47.316Z,2.20
2023-07-22T10:32:15.443Z,2.30
2023-07-22T10:34:43.424Z,1.90
2023-07-22T10:37:14.461Z,1.70
2023-07-22T10:39:42.738Z,2.20
2023-07-22T10:42:10.706Z,1.70
2023-07-22T10:44:41.999Z,2.10
2023-07-22T10:47:10.153Z,2.00
2023-07-22T10:49:46.901Z,1.60
2023-07-22T10:52:15.627Z,1.90
2023-07-22T10:54:43.785Z,1.70
2023-07-22T10:57:18.170Z,1.70
2023-07-22T10:59:51.271Z,1.90
2023-07-22T11:02:27.963Z,1.50
2023-07-22T11:05:00.914Z,2.10
2023-07-22T11:07:48.664Z,1.60
2023-07-22T11:10:19.959Z,1.90
2023-07-22T11:12:49.544Z,2.60
2023-07-22T11:15:19.285Z,1.80
2023-07-22T11:17:47.662Z,1.70
2023-07-22T11:20:15.788Z,1.70
2023-07-22T11:22:44.784Z,1.70
2023-07-22T11:25:19.544Z,2.00
2023-07-22T11:27:47.590Z,1.90
2023-07-22T11:30:15.746Z,1.70
2023-07-22T11:32:45.244Z,1.70
2023-07-22T11:35:13.216Z,1.80
2023-07-22T11:37:41.269Z,1.80
2023-07-22T11:40:13.593Z,1.90
2023-07-22T11:42:41.828Z,1.80
2023-07-22T11:45:10.164Z,1.80
2023-07-22T11:47:38.725Z,1.70
2023-07-22T11:50:07.356Z,2.00
2023-07-22T11:52:35.423Z,1.90
2023-07-22T11:55:06.592Z,1.40
2023-07-22T11:57:34.765Z,1.60
2023-07-22T12:00:02.756Z,1.60
2023-07-22T12:02:37.952Z,1.80
2023-07-22T12:05:07.078Z,1.70
2023-07-22T12:07:36.856Z,1.70
2023-07-22T12:10:07.408Z,1.50
2023-07-22T12:12:37.462Z,1.50
2023-07-22T12:15:17.839Z,1.70
2023-07-22T12:17:47.364Z,1.90
2023-07-22T12:20:17.483Z,1.80
2023-07-22T12:22:46.100Z,2.10
2023-07-22T12:25:14.206Z,1.80
2023-07-22T12:27:42.238Z,1.50
2023-07-22T12:30:10.854Z,1.80
2023-07-22T12:32:39.422Z,2.10
2023-07-22T12:35:08.304Z,1.70
2023-07-22T12:37:37.300Z,2.30
2023-07-22T12:40:09.638Z,1.70
2023-07-22T12:42:38.187Z,1.90
2023-07-22T12:45:07.254Z,2.00
2023-07-22T12:47:35.244Z,1.80
2023-07-22T12:50:03.803Z,1.90
2023-07-22T12:52:32.070Z,1.80
2023-07-22T12:55:00.255Z,2.30
2023-07-22T12:57:28.397Z,1.90
2023-07-22T12:59:56.867Z,2.10
2023-07-22T13:02:26.577Z,2.00
2023-07-22T13:04:55.042Z,2.10
2023-07-22T13:07:23.359Z,2.00
2023-07-22T13:09:57.826Z,1.90
2023-07-22T13:12:26.052Z,1.90
2023-07-22T13:14:54.027Z,1.90
2023-07-22T13:17:22.125Z,1.70
2023-07-22T13:19:50.258Z,1.90
2023-07-22T13:22:18.343Z,2.10
2023-07-22T13:24:47.058Z,1.70
2023-07-22T13:27:15.202Z,1.70
2023-07-22T13:29:43.260Z,1.90
2023-07-22T13:32:11.856Z,2.20
2023-07-22T13:34:39.733Z,2.00
2023-07-22T13:37:07.770Z,1.90
2023-07-22T13:39:35.893Z,1.80
2023-07-22T13:42:04.114Z,1.60
2023-07-22T13:44:32.268Z,2.00
2023-07-22T13:47:00.298Z,1.90
2023-07-22T13:49:28.546Z,2.50
2023-07-22T13:51:56.723Z,2.20
2023-07-22T13:54:24.912Z,2.20
2023-07-22T13:56:52.859Z,2.10
2023-07-22T13:59:20.748Z,2.00
2023-07-22T14:01:48.694Z,2.00
2023-07-22T14:04:16.959Z,2.10
2023-07-22T14:06:44.875Z,1.80
2023-07-22T14:09:12.849Z,2.10
2023-07-22T14:11:42.621Z,2.10
2023-07-22T14:14:11.103Z,2.00
2023-07-22T14:16:39.326Z,2.10
2023-07-22T14:19:08.564Z,2.10
2023-07-22T14:21:36.744Z,2.30
2023-07-22T14:24:05.944Z,2.10
2023-07-22T14:26:34.010Z,2.20
2023-07-22T14:29:01.980Z,2.20
2023-07-22T14:31:30.445Z,2.20
2023-07-22T14:33:58.813Z,2.10
2023-07-22T14:36:28.187Z,2.10
2023-07-22T14:38:57.136Z,2.20
2023-07-22T14:41:26.581Z,2.30
2023-07-22T14:43:55.219Z,2.30
2023-07-22T14:46:23.321Z,2.30
2023-07-22T14:48:51.768Z,2.50
2023-07-22T14:51:19.985Z,2.10
2023-07-22T14:53:48.333Z,2.30
2023-07-22T14:56:16.401Z,2.30
2023-07-22T14:58:44.478Z,2.20
2023-07-22T15:01:15.453Z,2.30
2023-07-22T15:03:43.722Z,2.00
2023-07-22T15:06:11.776Z,2.20
2023-07-22T15:08:39.985Z,2.50
2023-07-22T15:11:08.914Z,2.00
2023-07-22T15:13:36.852Z,2.20
2023-07-22T15:16:05.424Z,2.20
2023-07-22T15:18:33.490Z,2.40
2023-07-22T15:21:01.557Z,2.60
2023-07-22T15:23:29.500Z,2.50
2023-07-22T15:25:57.429Z,2.40
2023-07-22T15:28:27.436Z,2.20
2023-07-22T15:30:55.845Z,2.30
2023-07-22T15:33:24.080Z,2.60
2023-07-22T15:35:53.126Z,2.20
2023-07-22T15:38:21.148Z,2.10
2023-07-22T15:40:49.474Z,2.20
2023-07-22T15:43:18.372Z,2.10
2023-07-22T15:45:46.671Z,2.30
2023-07-22T15:48:14.826Z,2.30
2023-07-22T15:50:43.085Z,2.10
2023-07-22T15:53:11.284Z,2.40
2023-07-22T15:55:39.472Z,2.40
2023-07-22T15:58:07.555Z,2.00
2023-07-22T16:00:35.764Z,2.30
2023-07-22T16:03:04.001Z,2.50
2023-07-22T16:05:32.544Z,2.30
2023-07-22T16:08:01.488Z,2.50
2023-07-22T16:10:29.771Z,2.50
2023-07-22T16:12:58.758Z,2.50
2023-07-22T16:15:27.795Z,3.60
2023-07-22T16:17:57.275Z,2.70
2023-07-22T16:20:25.388Z,2.50
2023-07-22T16:22:53.595Z,2.80
2023-07-22T16:25:21.612Z,2.40
2023-07-22T16:27:49.668Z,2.70
2023-07-22T16:30:17.743Z,9.30
2023-07-22T16:32:45.734Z,3.70
2023-07-22T16:35:14.983Z,2.70
2023-07-22T16:37:42.987Z,2.80
2023-07-22T16:40:13.233Z,3.50
2023-07-22T16:42:41.444Z,2.50
2023-07-22T16:45:10.141Z,3.00
2023-07-22T16:47:38.256Z,2.40
2023-07-22T16:50:08.711Z,2.70
2023-07-22T16:52:36.755Z,2.60
2023-07-22T16:55:05.411Z,2.20
2023-07-22T16:57:33.555Z,2.60
2023-07-22T17:00:01.758Z,2.80
2023-07-22T17:02:29.988Z,2.70
2023-07-22T17:04:58.062Z,2.50
2023-07-22T17:07:25.876Z,2.50
2023-07-22T17:09:53.900Z,2.70
2023-07-22T17:12:21.903Z,2.70
2023-07-22T17:14:50.105Z,2.40
2023-07-22T17:17:17.979Z,2.60
2023-07-22T17:19:46.138Z,2.60
2023-07-22T17:22:14.195Z,2.70
2023-07-22T17:24:42.118Z,2.50
2023-07-22T17:27:10.380Z,2.70
2023-07-22T17:29:39.486Z,2.70
2023-07-22T17:32:08.243Z,2.70
2023-07-22T17:34:36.301Z,3.10
2023-07-22T17:37:04.390Z,2.80
2023-07-22T17:39:32.445Z,2.90
2023-07-22T17:42:00.608Z,2.60
2023-07-22T17:44:30.052Z,2.40
2023-07-22T17:47:01.619Z,2.70
2023-07-22T17:51:57.514Z,2.30
2023-07-22T17:54:25.588Z,3.10
2023-07-22T17:56:55.275Z,3.20
2023-07-22T17:59:23.168Z,2.50
2023-07-22T18:01:51.247Z,2.70
2023-07-22T18:04:19.519Z,2.40
2023-07-22T18:06:47.390Z,2.40
2023-07-22T18:09:15.680Z,2.60
2023-07-22T18:11:46.445Z,2.50
2023-07-22T18:14:14.877Z,2.90
2023-07-22T18:16:44.569Z,3.00
2023-07-22T18:19:12.668Z,5.50
2023-07-22T18:21:40.824Z,3.90
2023-07-22T18:24:10.529Z,4.30
2023-07-22T18:26:38.706Z,4.60
2023-07-22T18:29:06.776Z,5.20
2023-07-22T18:31:35.033Z,6.80
2023-07-22T18:34:04.952Z,14.60
2023-07-22T18:36:33.261Z,15.70
2023-07-22T18:39:01.305Z,15.60
2023-07-22T18:41:29.843Z,12.60
2023-07-22T18:43:57.965Z,21.90
2023-07-22T18:46:25.971Z,18.40
2023-07-22T18:48:54.111Z,10.30
2023-07-22T18:51:22.272Z,7.50
2023-07-22T18:53:50.376Z,6.50
2023-07-22T18:56:18.344Z,4.50
2023-07-22T18:58:46.353Z,4.40
2023-07-22T19:01:14.381Z,3.70
2023-07-22T19:03:42.524Z,3.10
2023-07-22T19:06:10.509Z,3.80
2023-07-22T19:08:38.454Z,3.40
2023-07-22T19:11:09.298Z,3.40
2023-07-22T19:13:37.315Z,3.40
2023-07-22T19:16:05.776Z,3.70
2023-07-22T19:18:34.052Z,3.40
2023-07-22T19:21:03.402Z,5.00
2023-07-22T19:23:31.672Z,4.40
2023-07-22T19:26:03.852Z,4.10
2023-07-22T19:28:33.828Z,4.00
2023-07-22T19:31:02.010Z,4.10
2023-07-22T19:33:30.024Z,4.00
2023-07-22T19:36:06.651Z,3.80
2023-07-22T19:38:35.087Z,3.80
2023-07-22T19:41:05.187Z,3.00
2023-07-22T19:43:33.717Z,3.40
2023-07-22T19:46:13.203Z,3.70
2023-07-22T19:48:43.151Z,3.50
2023-07-22T19:51:15.003Z,3.40
2023-07-22T19:53:43.579Z,3.30
2023-07-22T19:56:12.057Z,3.70
2023-07-22T19:58:40.341Z,3.70
2023-07-22T20:01:08.464Z,3.60
2023-07-22T20:03:41.346Z,3.70
2023-07-22T20:06:10.965Z,3.50
2023-07-22T20:08:40.228Z,3.30
2023-07-22T20:11:09.043Z,3.10
2023-07-22T20:13:37.678Z,3.10
2023-07-22T20:16:06.407Z,3.30
2023-07-22T20:18:34.581Z,3.30
2023-07-22T20:21:02.726Z,3.40
2023-07-22T20:23:30.783Z,3.30
2023-07-22T20:25:59.584Z,3.80
2023-07-22T20:28:30.077Z,3.50
2023-07-22T20:30:58.778Z,3.30
2023-07-22T20:33:27.075Z,3.70
2023-07-22T20:35:56.046Z,3.50
2023-07-22T20:38:24.142Z,3.30
2023-07-22T20:40:52.342Z,3.80
2023-07-22T20:43:21.013Z,3.70
2023-07-22T20:45:49.145Z,3.90
2023-07-22T20:48:17.191Z,3.60
2023-07-22T20:50:45.194Z,3.80
2023-07-22T20:53:13.238Z,3.70
2023-07-22T20:55:41.280Z,3.90
2023-07-22T20:58:09.287Z,4.00
2023-07-22T21:00:41.993Z,4.00
2023-07-22T21:03:10.141Z,5.60
2023-07-22T21:05:38.545Z,3.90
2023-07-22T21:08:06.628Z,3.60
2023-07-22T21:10:34.666Z,4.00
2023-07-22T21:13:03.867Z,4.40
2023-07-22T21:15:32.121Z,3.50
2023-07-22T21:18:01.733Z,3.90
2023-07-22T21:20:29.915Z,4.00
2023-07-22T21:22:58.062Z,5.30
2023-07-22T21:25:25.974Z,6.00
2023-07-22T21:27:54.020Z,6.00
2023-07-22T21:30:22.002Z,5.60
2023-07-22T21:32:50.030Z,5.00
2023-07-22T21:35:18.156Z,5.00
2023-07-22T21:37:46.208Z,4.70
2023-07-22T21:40:14.984Z,4.70
2023-07-22T21:42:45.003Z,5.90
2023-07-22T21:45:13.199Z,5.90
2023-07-22T21:47:41.317Z,6.40
2023-07-22T21:50:10.447Z,5.60
2023-07-22T21:52:38.419Z,5.30
2023-07-22T21:55:06.917Z,5.40
2023-07-22T21:57:36.588Z,6.00
2023-07-22T22:00:14.234Z,5.50
2023-07-22T22:02:43.233Z,5.90
2023-07-22T22:05:11.805Z,5.50
2023-07-22T22:07:39.774Z,6.10
2023-07-22T22:10:10.010Z,5.20
2023-07-22T22:12:38.959Z,5.00
2023-07-22T22:15:07.866Z,4.50
2023-07-22T22:17:54.423Z,4.30
2023-07-22T22:20:27.101Z,4.10
2023-07-22T22:22:55.184Z,4.30
2023-07-22T22:25:23.376Z,4.10
2023-07-22T22:27:51.548Z,4.10
2023-07-22T22:30:19.546Z,3.80
2023-07-22T22:32:48.189Z,3.90
2023-07-22T22:35:16.380Z,3.80
2023-07-22T22:37:44.325Z,3.50
2023-07-22T22:40:12.692Z,3.90
2023-07-22T22:42:40.644Z,2.90
2023-07-22T22:45:09.317Z,3.40
2023-07-22T22:47:37.458Z,4.00
2023-07-22T22:50:06.562Z,4.00
2023-07-22T22:52:35.763Z,4.40
2023-07-22T22:55:04.461Z,3.70
2023-07-22T22:57:32.548Z,3.40
2023-07-22T23:00:00.890Z,3.60
2023-07-22T23:02:29.298Z,4.10
2023-07-22T23:04:57.449Z,3.60
2023-07-22T23:07:25.617Z,3.10
2023-07-22T23:09:53.808Z,3.50
2023-07-22T23:12:21.963Z,3.40
2023-07-22T23:14:51.500Z,3.40
2023-07-22T23:17:19.872Z,3.00
2023-07-22T23:19:50.066Z,3.80
2023-07-22T23:22:18.104Z,3.20
2023-07-22T23:24:46.215Z,3.80
2023-07-22T23:27:14.434Z,3.90
2023-07-22T23:29:44.117Z,3.40
2023-07-22T23:32:12.069Z,3.60
2023-07-22T23:34:40.173Z,3.70
2023-07-22T23:37:08.322Z,3.80
2023-07-22T23:39:36.282Z,3.80
2023-07-22T23:42:04.443Z,3.80
2023-07-22T23:44:32.641Z,4.00
2023-07-22T23:47:00.912Z,3.80
2023-07-22T23:49:29.067Z,3.30
2023-07-22T23:51:57.179Z,3.80
2023-07-22T23:54:25.619Z,3.80
2023-07-22T23:56:53.788Z,3.40
2023-07-22T23:59:21.892Z,3.70
